Time;durP1;ratioP1;P1;durP2;ratioP2;P2;SDS_P1;SDS_P2;PMS_P1;PMS_P2;Temp;Humidity;BMP_temperature;BMP_pressure;BME280_temperature;BME280_humidity;BME280_pressure;Samples;Min_cycle;Max_cycle;Signal;HPM_P1;HPM_P2
2022/02/24 00:02:20;;;;;;;7.07;2.55;;;9.00;99.90;;;;;;5081090;28;20111;-42
2022/02/24 00:04:45;;;;;;;8.35;2.75;;;9.00;99.90;;;;;;5068381;28;20546;-42
2022/02/24 00:07:11;;;;;;;8.35;3.75;;;9.00;99.90;;;;;;5081683;28;20024;-43
2022/02/24 00:09:36;;;;;;;4.78;2.47;;;8.90;99.90;;;;;;5069417;28;20040;-43
2022/02/24 00:12:03;;;;;;;8.50;2.83;;;9.00;99.90;;;;;;5080074;28;20028;-43
2022/02/24 00:14:29;;;;;;;6.47;2.30;;;8.90;99.90;;;;;;5068895;28;20428;-41
2022/02/24 00:16:54;;;;;;;7.93;3.00;;;8.90;99.90;;;;;;5078406;28;20046;-42
2022/02/24 00:19:20;;;;;;;8.13;2.50;;;8.90;99.90;;;;;;5071886;28;20097;-42
2022/02/24 00:21:45;;;;;;;5.63;2.50;;;9.00;99.90;;;;;;5075234;28;20032;-42
2022/02/24 00:24:11;;;;;;;7.50;2.78;;;9.00;99.90;;;;;;5075220;28;20025;-43
2022/02/24 00:26:37;;;;;;;8.95;3.72;;;9.00;99.90;;;;;;5071272;28;20024;-42
2022/02/24 00:29:03;;;;;;;8.43;2.40;;;9.00;99.90;;;;;;5077440;28;20132;-42
2022/02/24 00:31:29;;;;;;;7.35;2.35;;;9.00;99.90;;;;;;5069347;28;20017;-43
2022/02/24 00:33:54;;;;;;;7.75;2.65;;;8.90;99.90;;;;;;5079650;28;20051;-42
2022/02/24 00:36:20;;;;;;;7.55;2.63;;;8.90;99.90;;;;;;5069697;28;20060;-41
2022/02/24 00:38:45;;;;;;;8.20;2.47;;;8.90;99.90;;;;;;5079480;28;20593;-42
2022/02/24 00:41:11;;;;;;;7.57;2.83;;;8.90;99.90;;;;;;5068871;28;20119;-42
2022/02/24 00:43:37;;;;;;;3.97;2.42;;;8.90;99.90;;;;;;5080907;28;20031;-42
2022/02/24 00:46:03;;;;;;;6.57;2.60;;;8.90;99.90;;;;;;5068108;28;20032;-42
2022/02/24 00:48:28;;;;;;;4.57;2.30;;;8.90;99.90;;;;;;5080650;28;20040;-42
2022/02/24 00:50:54;;;;;;;5.22;2.45;;;8.90;99.90;;;;;;5068367;28;20036;-44
2022/02/24 00:53:20;;;;;;;7.60;2.70;;;8.90;99.90;;;;;;5077294;28;20069;-42
2022/02/24 00:55:45;;;;;;;5.75;2.50;;;8.90;99.90;;;;;;5070616;28;20710;-43
2022/02/24 00:58:11;;;;;;;7.05;2.70;;;8.90;99.90;;;;;;5076256;28;20039;-43
2022/02/24 01:00:36;;;;;;;7.32;2.88;;;8.90;99.90;;;;;;5071598;28;20130;-44
2022/02/24 01:03:02;;;;;;;7.40;2.85;;;8.90;99.90;;;;;;5073472;28;20587;-43
2022/02/24 01:05:28;;;;;;;6.80;2.60;;;8.90;99.90;;;;;;5074744;28;20030;-42
2022/02/24 01:07:53;;;;;;;6.60;2.97;;;8.90;99.90;;;;;;5070249;28;20060;-40
2022/02/24 01:10:19;;;;;;;5.85;2.30;;;8.90;99.90;;;;;;5077701;28;20028;-42
2022/02/24 01:12:44;;;;;;;5.13;2.75;;;8.90;99.90;;;;;;5069246;28;20107;-42
2022/02/24 01:15:11;;;;;;;7.13;2.50;;;8.90;99.90;;;;;;5078045;28;20043;-43
2022/02/24 01:17:38;;;;;;;9.50;2.83;;;8.90;99.90;;;;;;5069124;28;20040;-42
2022/02/24 01:20:04;;;;;;;6.45;2.75;;;8.90;99.90;;;;;;5079120;28;20529;-45
2022/02/24 01:22:30;;;;;;;4.80;2.50;;;8.90;99.90;;;;;;5066820;28;20052;-42
2022/02/24 01:24:56;;;;;;;6.53;3.05;;;8.80;99.90;;;;;;5080802;28;20052;-42
2022/02/24 01:27:22;;;;;;;7.22;2.45;;;8.80;99.90;;;;;;5066893;28;20036;-41
2022/02/24 01:29:47;;;;;;;5.82;2.50;;;8.80;99.90;;;;;;5080000;28;20021;-41
2022/02/24 01:32:13;;;;;;;6.75;2.65;;;8.90;99.90;;;;;;5067597;28;20110;-42
2022/02/24 01:34:38;;;;;;;10.15;3.42;;;8.80;99.90;;;;;;5077546;28;20027;-42
2022/02/24 01:37:04;;;;;;;6.95;2.40;;;8.80;99.90;;;;;;5069755;28;20665;-42
2022/02/24 01:39:29;;;;;;;5.60;2.88;;;8.80;99.90;;;;;;5073969;28;20028;-40
2022/02/24 01:41:55;;;;;;;4.63;2.22;;;8.80;99.90;;;;;;5072174;28;20040;-41
2022/02/24 01:44:22;;;;;;;5.97;2.42;;;8.80;99.90;;;;;;5071431;28;20055;-43
2022/02/24 01:46:48;;;;;;;6.40;2.60;;;8.70;99.90;;;;;;5074473;28;20024;-41
2022/02/24 01:49:14;;;;;;;8.65;2.75;;;8.70;99.90;;;;;;5069005;28;20132;-43
2022/02/24 01:51:40;;;;;;;7.07;3.28;;;8.70;99.90;;;;;;5077526;28;20108;-42
2022/02/24 01:54:06;;;;;;;7.13;2.65;;;8.70;99.90;;;;;;5068511;28;20054;-43
2022/02/24 01:56:32;;;;;;;6.18;2.97;;;8.60;99.90;;;;;;5076841;28;20171;-42
2022/02/24 01:58:58;;;;;;;8.65;3.03;;;8.70;99.90;;;;;;5068590;28;20498;-43
2022/02/24 02:01:24;;;;;;;6.90;3.33;;;8.60;99.90;;;;;;5078071;28;20077;-42
2022/02/24 02:03:51;;;;;;;6.63;3.30;;;8.60;99.90;;;;;;5066397;28;20032;-42
2022/02/24 02:06:18;;;;;;;7.15;3.20;;;8.70;99.90;;;;;;5078635;28;20031;-42
2022/02/24 02:08:44;;;;;;;9.90;3.88;;;8.70;99.90;;;;;;5066982;28;20491;-41
2022/02/24 02:11:09;;;;;;;8.15;3.35;;;8.60;99.90;;;;;;5079033;28;20073;-43
2022/02/24 02:13:36;;;;;;;7.97;3.67;;;8.60;99.90;;;;;;5066952;28;20463;-42
2022/02/24 02:16:03;;;;;;;9.88;3.63;;;8.60;99.90;;;;;;5076656;28;20144;-43
2022/02/24 02:18:28;;;;;;;9.23;4.22;;;8.60;99.90;;;;;;5068136;28;20040;-43
2022/02/24 02:20:54;;;;;;;10.82;3.65;;;8.70;99.90;;;;;;5074202;28;20028;-44
2022/02/24 02:23:19;;;;;;;7.82;3.65;;;8.70;99.90;;;;;;5070877;28;20059;-44
2022/02/24 02:25:46;;;;;;;9.18;3.50;;;8.60;99.90;;;;;;5071524;28;20455;-43
2022/02/24 02:28:16;;;;;;;9.45;2.92;;;8.70;99.90;;;;;;5073881;28;20070;-42
2022/02/24 02:30:42;;;;;;;10.45;3.33;;;8.70;99.90;;;;;;5069498;28;20364;-42
2022/02/24 02:33:08;;;;;;;4.55;2.70;;;8.70;99.90;;;;;;5075719;28;20033;-44
2022/02/24 02:35:33;;;;;;;9.68;3.67;;;8.70;99.90;;;;;;5067370;28;20043;-42
2022/02/24 02:37:59;;;;;;;9.07;3.60;;;8.70;99.90;;;;;;5077536;28;20040;-42
2022/02/24 02:40:25;;;;;;;10.82;3.20;;;8.70;99.90;;;;;;5066280;28;20111;-43
2022/02/24 02:42:51;;;;;;;6.10;2.72;;;8.60;99.90;;;;;;5077297;28;20480;-42
2022/02/24 02:45:17;;;;;;;8.50;2.78;;;8.60;99.90;;;;;;5065377;28;20107;-43
2022/02/24 02:47:43;;;;;;;8.32;3.53;;;8.70;99.90;;;;;;5078849;28;20103;-43
2022/02/24 02:50:09;;;;;;;11.00;2.85;;;8.70;99.90;;;;;;5065582;28;20768;-44
2022/02/24 02:52:35;;;;;;;10.63;4.07;;;8.70;99.90;;;;;;5077758;28;20115;-43
2022/02/24 02:55:06;;;;;;;8.45;3.30;;;8.70;99.90;;;;;;5065917;28;20036;-42
2022/02/24 02:57:31;;;;;;;9.82;3.40;;;8.70;99.90;;;;;;5076575;28;20127;-43
2022/02/24 02:59:57;;;;;;;9.38;2.80;;;8.70;99.90;;;;;;5067349;28;20108;-41
2022/02/24 03:02:22;;;;;;;8.30;2.97;;;8.70;99.90;;;;;;5073522;28;20491;-43
2022/02/24 03:04:50;;;;;;;7.18;2.70;;;8.70;99.90;;;;;;5069799;28;20070;-43
2022/02/24 03:07:17;;;;;;;9.77;3.22;;;8.70;99.90;;;;;;5070819;28;20089;-43
2022/02/24 03:09:44;;;;;;;9.00;3.10;;;8.70;99.90;;;;;;5072387;28;20056;-44
2022/02/24 03:12:10;;;;;;;5.88;2.92;;;8.70;99.90;;;;;;5069076;28;20472;-43
2022/02/24 03:14:38;;;;;;;4.70;2.30;;;8.70;99.90;;;;;;5074114;28;20075;-42
2022/02/24 03:17:04;;;;;;;9.65;2.50;;;8.70;99.90;;;;;;5066708;28;20059;-43
2022/02/24 03:19:29;;;;;;;8.90;2.95;;;8.60;99.90;;;;;;5076004;28;20036;-42
2022/02/24 03:21:55;;;;;;;7.90;2.40;;;8.70;99.90;;;;;;5067173;28;20561;-42
2022/02/24 03:24:21;;;;;;;9.95;3.03;;;8.70;99.90;;;;;;5076557;28;20013;-42
2022/02/24 03:26:47;;;;;;;7.50;3.00;;;8.70;99.90;;;;;;5064657;28;20031;-43
2022/02/24 03:29:12;;;;;;;10.25;2.55;;;8.70;99.90;;;;;;5077657;28;20024;-43
2022/02/24 03:31:38;;;;;;;4.80;2.35;;;8.60;99.90;;;;;;5064995;28;20029;-40
2022/02/24 03:34:03;;;;;;;6.57;2.50;;;8.60;99.90;;;;;;5077617;28;20382;-43
2022/02/24 03:36:29;;;;;;;7.47;2.80;;;8.60;99.90;;;;;;5064769;28;20070;-41
2022/02/24 03:38:54;;;;;;;5.88;1.95;;;8.60;99.90;;;;;;5076548;28;20020;-44
2022/02/24 03:41:23;;;;;;;8.40;4.20;;;8.70;99.90;;;;;;5066541;28;20092;-43
2022/02/24 03:43:48;;;;;;;8.10;2.85;;;8.60;99.90;;;;;;5073857;28;20460;-42
2022/02/24 03:46:14;;;;;;;11.63;4.03;;;8.60;99.90;;;;;;5068814;28;20031;-42
2022/02/24 03:48:39;;;;;;;7.72;2.63;;;8.70;99.90;;;;;;5071064;28;20111;-42
2022/02/24 03:51:05;;;;;;;7.10;2.40;;;8.70;99.90;;;;;;5072288;28;20024;-43
2022/02/24 03:53:30;;;;;;;8.02;2.65;;;8.70;99.90;;;;;;5067935;28;20483;-41
2022/02/24 03:55:56;;;;;;;6.80;2.72;;;8.70;99.90;;;;;;5073796;28;20555;-42
2022/02/24 03:58:21;;;;;;;7.25;2.30;;;8.70;99.90;;;;;;5066167;28;20123;-42
2022/02/24 04:00:47;;;;;;;5.80;2.25;;;8.70;99.90;;;;;;5076290;28;20029;-41
2022/02/24 04:03:12;;;;;;;6.47;2.20;;;8.70;99.90;;;;;;5065941;28;20044;-43
2022/02/24 04:05:38;;;;;;;8.90;2.90;;;8.70;99.90;;;;;;5076735;28;20021;-41
2022/02/24 04:08:04;;;;;;;6.35;2.53;;;8.70;99.90;;;;;;5065387;28;20495;-41
2022/02/24 04:10:29;;;;;;;10.48;3.08;;;8.70;99.90;;;;;;5076891;28;20027;-42
2022/02/24 04:12:55;;;;;;;7.00;2.50;;;8.70;99.90;;;;;;5065471;28;20432;-42
2022/02/24 04:15:21;;;;;;;7.18;2.33;;;8.70;99.90;;;;;;5076884;28;20024;-41
2022/02/24 04:17:46;;;;;;;8.07;3.17;;;8.70;99.90;;;;;;5064897;28;20040;-41
2022/02/24 04:20:12;;;;;;;7.75;2.47;;;8.70;99.90;;;;;;5074741;28;20031;-43
2022/02/24 04:22:37;;;;;;;5.90;2.35;;;8.70;99.90;;;;;;5066743;28;20127;-42
2022/02/24 04:25:03;;;;;;;8.98;2.47;;;8.70;99.90;;;;;;5072484;28;20145;-42
2022/02/24 04:27:29;;;;;;;10.05;2.60;;;8.70;99.90;;;;;;5069676;28;20024;-43
2022/02/24 04:29:54;;;;;;;6.30;2.42;;;8.70;99.90;;;;;;5069819;28;20024;-41
2022/02/24 04:32:20;;;;;;;8.38;2.30;;;8.70;99.90;;;;;;5071897;28;20036;-43
2022/02/24 04:34:45;;;;;;;8.15;2.65;;;8.70;99.90;;;;;;5067108;28;20027;-43
2022/02/24 04:37:10;;;;;;;6.60;2.50;;;8.70;99.90;;;;;;5075011;28;20036;-40
2022/02/24 04:39:36;;;;;;;4.22;2.28;;;8.70;99.90;;;;;;5069388;28;20483;-42
2022/02/24 04:42:02;;;;;;;7.93;2.75;;;8.70;99.90;;;;;;5080115;28;20027;-42
2022/02/24 04:44:27;;;;;;;7.03;2.50;;;8.70;99.90;;;;;;5068440;28;20614;-41
2022/02/24 04:46:53;;;;;;;9.88;3.00;;;8.70;99.90;;;;;;5080226;28;20040;-42
2022/02/24 04:49:18;;;;;;;5.90;2.63;;;8.70;99.90;;;;;;5072971;28;20101;-43
2022/02/24 04:51:44;;;;;;;9.05;2.92;;;8.70;99.90;;;;;;5075823;28;20460;-42
2022/02/24 04:54:09;;;;;;;8.07;2.60;;;8.70;99.90;;;;;;5088461;28;20036;-42
2022/02/24 04:56:35;;;;;;;9.55;3.05;;;8.70;99.90;;;;;;5076150;28;20028;-42
2022/02/24 04:59:00;;;;;;;8.77;3.10;;;8.70;99.90;;;;;;5087362;28;20213;-43
2022/02/24 05:01:28;;;;;;;8.55;2.90;;;8.70;99.90;;;;;;5078663;28;20108;-42
2022/02/24 05:03:54;;;;;;;6.50;2.58;;;8.70;99.90;;;;;;5085988;28;20020;-43
2022/02/24 05:06:19;;;;;;;5.50;2.50;;;8.60;99.90;;;;;;5080158;28;20028;-42
2022/02/24 05:08:45;;;;;;;6.82;2.70;;;8.60;99.90;;;;;;5082927;28;20020;-43
2022/02/24 05:11:10;;;;;;;6.53;2.63;;;8.60;99.90;;;;;;5083963;28;20036;-42
2022/02/24 05:13:36;;;;;;;7.20;2.85;;;8.60;99.90;;;;;;5079248;28;20130;-42
2022/02/24 05:16:02;;;;;;;6.57;3.20;;;8.60;99.90;;;;;;5087537;28;20589;-43
2022/02/24 05:18:27;;;;;;;8.85;3.00;;;8.60;99.90;;;;;;5076760;28;20863;-44
2022/02/24 05:20:53;;;;;;;6.80;2.70;;;8.60;99.90;;;;;;5085870;28;20027;-43
2022/02/24 05:23:18;;;;;;;10.20;3.67;;;8.60;99.90;;;;;;5076787;28;20617;-42
2022/02/24 05:25:44;;;;;;;10.63;3.03;;;8.60;99.90;;;;;;5087801;28;20039;-41
2022/02/24 05:28:11;;;;;;;8.48;3.33;;;8.60;99.90;;;;;;5074546;28;20038;-43
2022/02/24 05:30:37;;;;;;;8.77;3.00;;;8.60;99.90;;;;;;5088186;28;20047;-43
2022/02/24 05:33:03;;;;;;;7.55;3.00;;;8.60;99.90;;;;;;5074366;28;20481;-43
2022/02/24 05:35:29;;;;;;;9.48;2.95;;;8.60;99.90;;;;;;5087474;28;20020;-43
2022/02/24 05:37:54;;;;;;;9.38;3.03;;;8.50;99.90;;;;;;5076763;28;20037;-42
2022/02/24 05:40:20;;;;;;;8.45;2.90;;;8.50;99.90;;;;;;5086078;28;20474;-42
2022/02/24 05:42:46;;;;;;;7.82;2.63;;;8.50;99.90;;;;;;5078391;28;20043;-43
2022/02/24 05:45:12;;;;;;;10.27;3.28;;;8.50;99.90;;;;;;5083641;28;20032;-42
2022/02/24 05:47:37;;;;;;;7.63;2.85;;;8.50;99.90;;;;;;5080920;28;20025;-42
2022/02/24 05:50:07;;;;;;;4.63;2.45;;;8.50;99.90;;;;;;5080085;28;20028;-43
2022/02/24 05:52:36;;;;;;;6.82;3.13;;;8.60;99.90;;;;;;5082835;28;20095;-44
2022/02/24 05:55:03;;;;;;;8.32;2.75;;;8.60;99.90;;;;;;5079384;28;20028;-43
2022/02/24 05:57:29;;;;;;;9.50;2.58;;;8.60;99.90;;;;;;5084133;28;20028;-43
2022/02/24 05:59:57;;;;;;;7.07;2.53;;;8.60;99.90;;;;;;5076700;28;20035;-41
2022/02/24 06:02:23;;;;;;;9.57;3.05;;;8.60;99.90;;;;;;5084365;28;20032;-42
2022/02/24 06:04:48;;;;;;;9.23;2.83;;;8.60;99.90;;;;;;5076402;28;20024;-43
2022/02/24 06:07:14;;;;;;;8.50;2.78;;;8.60;99.90;;;;;;5085456;28;20032;-43
2022/02/24 06:09:39;;;;;;;11.95;3.33;;;8.60;99.90;;;;;;5074240;28;20048;-43
2022/02/24 06:12:05;;;;;;;6.57;3.20;;;8.60;99.90;;;;;;5087230;28;20020;-42
2022/02/24 06:14:31;;;;;;;9.77;3.40;;;8.50;99.90;;;;;;5073704;28;20363;-43
2022/02/24 06:16:59;;;;;;;8.68;2.75;;;8.60;99.90;;;;;;5086272;28;20487;-42
2022/02/24 06:19:25;;;;;;;8.75;2.97;;;8.60;99.90;;;;;;5073723;28;20020;-42
2022/02/24 06:21:52;;;;;;;10.77;3.05;;;8.70;99.90;;;;;;5086473;28;20518;-41
2022/02/24 06:24:18;;;;;;;10.13;2.70;;;8.70;99.90;;;;;;5075626;28;20107;-42
2022/02/24 06:26:44;;;;;;;7.88;2.85;;;8.70;99.90;;;;;;5084054;28;20489;-41
2022/02/24 06:29:09;;;;;;;10.95;2.88;;;8.80;99.90;;;;;;5078817;28;20135;-43
2022/02/24 06:31:37;;;;;;;7.03;2.85;;;8.80;99.90;;;;;;5080582;28;20843;-42
2022/02/24 06:34:03;;;;;;;12.75;2.45;;;8.90;99.90;;;;;;5081170;28;20082;-43
2022/02/24 06:36:28;;;;;;;7.00;2.28;;;8.90;99.90;;;;;;5078136;28;20031;-43
2022/02/24 06:38:55;;;;;;;6.35;2.72;;;9.00;99.90;;;;;;5083797;28;20111;-41
2022/02/24 06:41:21;;;;;;;8.18;3.30;;;9.00;99.90;;;;;;5072489;28;20034;-43
2022/02/24 06:43:47;;;;;;;9.75;3.55;;;9.00;99.90;;;;;;5080680;28;20822;-42
2022/02/24 06:46:13;;;;;;;13.73;3.38;;;9.00;99.90;;;;;;5076177;28;20067;-42
2022/02/24 06:48:39;;;;;;;6.63;3.10;;;9.10;99.90;;;;;;5066322;28;20392;-42
2022/02/24 06:51:05;;;;;;;8.65;3.00;;;9.10;99.90;;;;;;5074976;28;20016;-43
2022/02/24 06:53:30;;;;;;;10.18;2.85;;;9.20;99.90;;;;;;5064272;28;20045;-43
2022/02/24 06:55:56;;;;;;;7.25;2.72;;;9.30;99.90;;;;;;5078014;28;20016;-42
2022/02/24 06:58:27;;;;;;;7.85;2.92;;;9.30;99.90;;;;;;5064178;28;20060;-42
2022/02/24 07:00:53;;;;;;;7.82;3.03;;;9.30;99.90;;;;;;5078832;28;20036;-42
2022/02/24 07:03:18;;;;;;;8.85;2.65;;;9.20;99.90;;;;;;5065208;28;20028;-42
2022/02/24 07:05:44;;;;;;;7.65;2.50;;;9.20;99.90;;;;;;5074668;28;20823;-42
2022/02/24 07:08:09;;;;;;;8.48;2.83;;;9.10;99.90;;;;;;5066696;28;20452;-43
2022/02/24 07:10:35;;;;;;;5.15;2.17;;;9.20;99.90;;;;;;5072440;28;20016;-42
2022/02/24 07:13:01;;;;;;;5.85;2.15;;;9.20;99.90;;;;;;5069168;28;20152;-43
2022/02/24 07:15:27;;;;;;;7.35;2.65;;;9.30;99.90;;;;;;5069373;28;20499;-43
2022/02/24 07:17:52;;;;;;;10.43;3.35;;;9.30;99.90;;;;;;5072180;28;20123;-44
2022/02/24 07:20:18;;;;;;;7.28;3.05;;;9.30;99.90;;;;;;5066052;28;20055;-43
2022/02/24 07:22:45;;;;;;;7.03;2.40;;;9.30;99.90;;;;;;5074910;28;20028;-43
2022/02/24 07:25:12;;;;;;;7.95;2.55;;;9.30;99.90;;;;;;5065239;28;20031;-42
2022/02/24 07:27:38;;;;;;;7.55;2.88;;;9.30;99.90;;;;;;5075230;28;20496;-43
2022/02/24 07:30:05;;;;;;;6.18;2.53;;;9.30;99.90;;;;;;5067084;28;20032;-42
2022/02/24 07:32:31;;;;;;;8.07;2.65;;;9.40;99.90;;;;;;5082196;28;20043;-43
2022/02/24 07:34:57;;;;;;;7.78;3.00;;;9.40;99.90;;;;;;5104905;28;20072;-42
2022/02/24 07:37:22;;;;;;;6.35;2.67;;;9.40;99.90;;;;;;5087134;28;20151;-43
2022/02/24 07:39:48;;;;;;;7.93;3.65;;;9.40;99.90;;;;;;5095878;28;20019;-42
2022/02/24 07:42:17;;;;;;;8.32;2.97;;;9.30;99.90;;;;;;5083668;28;20371;-42
2022/02/24 07:44:45;;;;;;;7.03;2.70;;;9.30;99.90;;;;;;5104146;28;20028;-43
2022/02/24 07:47:12;;;;;;;12.60;2.80;;;9.20;99.90;;;;;;5085434;28;20024;-43
2022/02/24 07:49:37;;;;;;;7.40;2.30;;;9.10;99.90;;;;;;5066270;28;20111;-44
2022/02/24 07:52:03;;;;;;;7.68;2.92;;;9.10;99.90;;;;;;5073966;28;20161;-41
2022/02/24 07:54:29;;;;;;;5.90;2.50;;;9.10;99.90;;;;;;5068691;28;20492;-41
2022/02/24 07:56:54;;;;;;;7.05;2.45;;;9.10;99.90;;;;;;5070723;28;20035;-42
2022/02/24 07:59:20;;;;;;;8.18;2.30;;;9.10;99.90;;;;;;5071036;28;20516;-42
2022/02/24 08:01:46;;;;;;;11.95;2.65;;;9.20;99.90;;;;;;5067962;28;20029;-42
2022/02/24 08:04:12;;;;;;;6.97;2.38;;;9.30;99.90;;;;;;5074611;28;20036;-43
2022/02/24 08:06:38;;;;;;;6.63;2.25;;;9.40;99.90;;;;;;5066072;28;20025;-42
2022/02/24 08:09:06;;;;;;;5.50;2.05;;;9.40;99.90;;;;;;5075405;28;20558;-42
2022/02/24 08:11:32;;;;;;;8.25;2.45;;;9.40;99.90;;;;;;5065779;28;20033;-42
2022/02/24 08:13:57;;;;;;;7.72;2.00;;;9.30;99.90;;;;;;5079142;28;20028;-43
2022/02/24 08:16:23;;;;;;;9.05;2.15;;;9.40;99.90;;;;;;5068387;28;20720;-43
2022/02/24 08:18:48;;;;;;;6.65;2.65;;;9.40;99.90;;;;;;5081810;28;20028;-43
2022/02/24 08:21:14;;;;;;;7.35;2.28;;;9.30;99.90;;;;;;5067889;28;20116;-43
2022/02/24 08:23:39;;;;;;;5.72;2.17;;;9.40;99.90;;;;;;5075541;28;20033;-42
2022/02/24 08:26:05;;;;;;;4.88;1.70;;;9.40;99.90;;;;;;5089586;28;20020;-42
2022/02/24 08:28:30;;;;;;;5.38;1.85;;;9.50;99.90;;;;;;5077510;28;20024;-41
2022/02/24 08:30:56;;;;;;;6.97;2.10;;;9.50;99.90;;;;;;5086158;28;20043;-40
2022/02/24 08:33:21;;;;;;;8.45;2.60;;;9.50;99.90;;;;;;5080379;28;20131;-42
2022/02/24 08:35:47;;;;;;;6.47;1.88;;;9.50;99.90;;;;;;5083698;28;20028;-42
2022/02/24 08:38:12;;;;;;;7.90;2.40;;;9.60;99.90;;;;;;5083221;28;20435;-42
2022/02/24 08:40:38;;;;;;;5.55;1.77;;;9.60;99.90;;;;;;5080937;28;20372;-41
2022/02/24 08:43:04;;;;;;;6.55;1.88;;;9.60;99.90;;;;;;5086726;28;20111;-42
2022/02/24 08:45:30;;;;;;;6.22;2.55;;;9.70;99.90;;;;;;5077813;28;20027;-43
2022/02/24 08:47:55;;;;;;;5.50;2.10;;;9.80;99.90;;;;;;5087009;28;20427;-42
2022/02/24 08:50:21;;;;;;;5.88;2.17;;;9.80;99.90;;;;;;5076814;28;20057;-43
2022/02/24 08:52:47;;;;;;;6.57;2.10;;;9.80;99.90;;;;;;5086704;28;20052;-43
2022/02/24 08:55:12;;;;;;;9.90;2.08;;;9.80;99.90;;;;;;5076446;28;20058;-42
2022/02/24 08:57:38;;;;;;;10.05;3.33;;;9.90;99.90;;;;;;5088869;28;20044;-42
2022/02/24 09:00:08;;;;;;;5.47;2.00;;;10.00;99.90;;;;;;5074841;28;20028;-43
2022/02/24 09:02:34;;;;;;;4.03;1.80;;;10.00;99.90;;;;;;5082726;28;20484;-42
2022/02/24 09:05:00;;;;;;;11.85;2.40;;;10.00;99.90;;;;;;5080594;28;20039;-42
2022/02/24 09:07:26;;;;;;;8.45;2.17;;;10.00;99.90;;;;;;5067322;28;20031;-42
2022/02/24 09:09:52;;;;;;;6.15;1.90;;;10.00;99.90;;;;;;5077902;28;20024;-44
2022/02/24 09:12:17;;;;;;;5.22;2.10;;;10.10;99.90;;;;;;5081748;28;20044;-43
2022/02/24 09:14:43;;;;;;;6.93;2.28;;;10.20;99.90;;;;;;5092365;28;20468;-42
2022/02/24 09:17:10;;;;;;;6.30;2.20;;;10.30;99.90;;;;;;5072617;28;20056;-42
2022/02/24 09:19:39;;;;;;;6.68;2.17;;;10.20;99.90;;;;;;5072403;28;20035;-40
2022/02/24 09:22:06;;;;;;;6.63;2.03;;;10.20;99.90;;;;;;5075217;28;20427;-41
2022/02/24 09:24:31;;;;;;;5.38;2.05;;;10.20;99.90;;;;;;5069812;28;20408;-40
2022/02/24 09:26:57;;;;;;;5.68;2.13;;;10.20;99.90;;;;;;5075286;28;20021;-42
2022/02/24 09:29:22;;;;;;;6.97;2.25;;;10.30;99.90;;;;;;5068845;28;20128;-42
2022/02/24 09:31:48;;;;;;;9.07;2.60;;;10.40;99.90;;;;;;5078306;28;20063;-42
2022/02/24 09:34:15;;;;;;;4.93;1.73;;;10.40;99.90;;;;;;5068329;28;20028;-43
2022/02/24 09:36:41;;;;;;;8.25;2.00;;;10.40;99.90;;;;;;5078637;28;20071;-42
2022/02/24 09:39:07;;;;;;;6.07;1.90;;;10.50;99.90;;;;;;5067299;28;20036;-41
2022/02/24 09:41:32;;;;;;;6.53;2.00;;;10.50;99.90;;;;;;5078721;28;20038;-43
2022/02/24 09:43:58;;;;;;;6.78;1.83;;;10.60;99.90;;;;;;5067715;28;20119;-43
2022/02/24 09:46:24;;;;;;;6.05;2.05;;;10.60;99.90;;;;;;5082346;28;20391;-43
2022/02/24 09:48:50;;;;;;;3.13;1.50;;;10.60;99.90;;;;;;5068211;28;20031;-44
2022/02/24 09:51:18;;;;;;;8.95;1.63;;;10.60;99.90;;;;;;5076684;28;20016;-44
2022/02/24 09:53:45;;;;;;;4.85;1.65;;;10.50;99.90;;;;;;5084258;28;20055;-43
2022/02/24 09:56:28;;;;;;;5.95;2.00;;;10.50;99.90;;;;;;5078342;28;20067;-43
2022/02/24 09:58:55;;;;;;;8.10;2.58;;;10.50;99.90;;;;;;5085589;28;20509;-43
2022/02/24 10:01:21;;;;;;;8.98;2.10;;;10.60;99.90;;;;;;5077267;28;20017;-44
2022/02/24 10:03:53;;;;;;;3.67;1.63;;;10.60;99.90;;;;;;5083387;28;20035;-43
2022/02/24 10:06:30;;;;;;;8.00;1.90;;;10.80;99.90;;;;;;5079661;28;20032;-41
2022/02/24 10:08:56;;;;;;;8.65;2.42;;;10.90;99.90;;;;;;5082433;28;20035;-42
2022/02/24 10:11:31;;;;;;;8.70;1.92;;;10.90;99.90;;;;;;5081464;28;20017;-43
2022/02/24 10:14:04;;;;;;;6.35;1.63;;;11.00;99.90;;;;;;5079779;28;20027;-44
2022/02/24 10:16:30;;;;;;;6.57;1.67;;;11.00;99.90;;;;;;5092027;28;20024;-44
2022/02/24 10:18:56;;;;;;;9.00;2.33;;;11.00;99.90;;;;;;5090282;28;20862;-42
2022/02/24 10:21:22;;;;;;;6.20;1.83;;;11.10;99.90;;;;;;5083215;28;20020;-43
2022/02/24 10:23:50;;;;;;;5.45;1.90;;;11.10;99.90;;;;;;5076770;28;20142;-42
2022/02/24 10:26:17;;;;;;;3.08;1.48;;;11.40;99.90;;;;;;5084626;28;20777;-42
2022/02/24 10:28:46;;;;;;;6.55;1.85;;;11.60;99.90;;;;;;5075430;28;20379;-44
2022/02/24 10:31:21;;;;;;;8.00;2.05;;;11.70;99.90;;;;;;5084442;28;20058;-43
2022/02/24 10:34:06;;;;;;;9.20;2.58;;;11.80;99.90;;;;;;5075906;28;20024;-43
2022/02/24 10:36:34;;;;;;;7.40;1.88;;;11.60;99.90;;;;;;5082930;28;20024;-43
2022/02/24 10:39:08;;;;;;;4.97;1.80;;;11.40;99.90;;;;;;5075072;28;20039;-43
2022/02/24 10:41:38;;;;;;;6.60;1.88;;;11.40;99.90;;;;;;5084500;28;20020;-42
2022/02/24 10:44:12;;;;;;;4.88;1.60;;;11.50;99.90;;;;;;5074452;28;20722;-42
2022/02/24 10:46:37;;;;;;;7.60;1.85;;;11.50;99.90;;;;;;5084368;28;20450;-42
2022/02/24 10:49:03;;;;;;;3.88;1.58;;;11.40;99.90;;;;;;5075073;28;20055;-43
2022/02/24 10:51:31;;;;;;;6.40;2.05;;;11.30;99.90;;;;;;5085256;28;20028;-41
2022/02/24 10:54:03;;;;;;;5.53;1.73;;;11.30;99.90;;;;;;5072693;28;20059;-42
2022/02/24 10:56:29;;;;;;;;;;;11.40;99.90;;;;;;5086231;28;20031;-43
2022/02/24 10:58:55;;;;;;;5.22;1.45;;;11.40;99.90;;;;;;5072691;28;19909;-42
2022/02/24 11:01:23;;;;;;;6.07;1.90;;;11.40;99.90;;;;;;5085455;28;20020;-43
2022/02/24 11:03:54;;;;;;;5.80;1.60;;;11.40;99.90;;;;;;5079953;28;20062;-43
2022/02/24 11:06:22;;;;;;;8.15;2.35;;;11.30;99.90;;;;;;5064812;28;20078;-42
2022/02/24 11:08:49;;;;;;;5.18;1.90;;;11.30;99.90;;;;;;5075674;28;20024;-41
2022/02/24 11:11:30;;;;;;;7.03;2.08;;;11.30;99.90;;;;;;5066899;28;20016;-42
2022/02/24 11:13:57;;;;;;;6.88;1.77;;;11.20;99.90;;;;;;5074574;28;20059;-40
2022/02/24 11:16:24;;;;;;;5.35;1.80;;;11.30;99.90;;;;;;5067459;28;20028;-42
2022/02/24 11:18:52;;;;;;;8.18;1.70;;;11.30;99.90;;;;;;5072785;28;20127;-42
2022/02/24 11:21:18;;;;;;;7.78;2.05;;;11.30;99.90;;;;;;5070032;28;20732;-43
2022/02/24 11:23:46;;;;;;;5.85;1.70;;;11.40;99.90;;;;;;5070507;28;20047;-42
2022/02/24 11:26:31;;;;;;;4.97;1.70;;;11.50;99.90;;;;;;5072086;28;20025;-43
2022/02/24 11:29:25;;;;;;;5.65;1.77;;;11.50;99.90;;;;;;5070928;28;20616;-42
2022/02/24 11:31:54;;;;;;;5.10;1.73;;;11.60;99.90;;;;;;5068259;28;20032;-43
2022/02/24 11:34:54;;;;;;;6.38;1.92;;;11.70;99.90;;;;;;5071987;28;20035;-43
2022/02/24 11:37:34;;;;;;;8.45;2.13;;;11.90;99.90;;;;;;5061402;28;20045;-43
2022/02/24 11:40:17;;;;;;;6.03;1.40;;;12.10;99.90;;;;;;5076030;28;20055;-42
2022/02/24 11:42:45;;;;;;;4.22;1.20;;;12.20;99.90;;;;;;5065408;28;20082;-42
2022/02/24 11:45:25;;;;;;;6.55;1.42;;;12.30;99.90;;;;;;5076595;28;20395;-43
2022/02/24 11:48:03;;;;;;;5.00;1.83;;;12.30;99.90;;;;;;5066042;28;20029;-43
2022/02/24 11:50:40;;;;;;;5.32;1.65;;;12.30;99.50;;;;;;5081429;28;20016;-40
2022/02/24 11:53:28;;;;;;;6.65;1.70;;;12.20;99.40;;;;;;5069282;28;20135;-44
2022/02/24 11:55:56;;;;;;;6.45;1.40;;;12.10;99.80;;;;;;5081390;28;20032;-43
2022/02/24 11:58:44;;;;;;;4.97;1.80;;;12.10;99.80;;;;;;5068790;28;20114;-43
2022/02/24 12:01:15;;;;;;;5.57;1.60;;;12.20;99.50;;;;;;5081276;28;20211;-44
2022/02/24 12:03:44;;;;;;;5.13;1.80;;;12.20;99.60;;;;;;5068848;28;20062;-42
2022/02/24 12:06:20;;;;;;;5.63;1.42;;;12.30;99.50;;;;;;5081143;28;20032;-42
2022/02/24 12:09:12;;;;;;;4.15;1.40;;;12.30;99.30;;;;;;5068934;28;20476;-42
2022/02/24 12:11:48;;;;;;;3.20;1.20;;;12.40;99.70;;;;;;5081624;28;20024;-42
2022/02/24 12:14:20;;;;;;;2.38;1.02;;;12.50;99.10;;;;;;5067946;28;20060;-43
2022/02/24 12:17:01;;;;;;;7.22;1.85;;;12.50;98.80;;;;;;5080752;28;20090;-43
2022/02/24 12:19:55;;;;;;;2.53;1.13;;;12.40;99.00;;;;;;5082741;28;20867;-41
2022/02/24 12:22:20;;;;;;;5.95;1.92;;;12.40;99.40;;;;;;5079387;28;20024;-42
2022/02/24 12:24:53;;;;;;;4.53;1.50;;;12.30;98.90;;;;;;5069123;28;20039;-42
2022/02/24 12:27:43;;;;;;;3.95;1.23;;;12.20;99.10;;;;;;5079015;28;20020;-43
2022/02/24 12:30:09;;;;;;;5.18;1.23;;;12.30;99.40;;;;;;5061845;28;20067;-43
2022/02/24 12:32:41;;;;;;;3.53;1.40;;;12.30;99.40;;;;;;5079927;28;20047;-42
2022/02/24 12:35:09;;;;;;;2.97;1.20;;;12.30;99.30;;;;;;5068794;28;20056;-42
2022/02/24 12:37:34;;;;;;;5.60;1.58;;;12.40;99.40;;;;;;5079623;28;20063;-42
2022/02/24 12:40:01;;;;;;;3.45;1.30;;;12.50;99.50;;;;;;5068603;28;20767;-43
2022/02/24 12:42:30;;;;;;;5.00;1.40;;;12.60;99.00;;;;;;5080860;28;20127;-43
2022/02/24 12:44:56;;;;;;;4.03;1.25;;;12.60;99.20;;;;;;5071175;28;20499;-42
2022/02/24 12:47:22;;;;;;;3.00;1.00;;;12.70;99.20;;;;;;5087238;28;20068;-43
2022/02/24 12:49:54;;;;;;;4.78;1.15;;;12.80;98.80;;;;;;5068911;28;20107;-43
2022/02/24 12:52:21;;;;;;;9.95;1.40;;;12.80;98.80;;;;;;5078107;28;20047;-43
2022/02/24 12:54:47;;;;;;;3.28;1.20;;;12.80;98.80;;;;;;5069672;28;20053;-44